Location Greenlaw, NA, UK

ob NPTOHCUK 251700Z AUTO 09000KT CLR CLR 14/04 A3039 RMK SLPNO 

2017.03.25 1700 UTC
Wind from the E (089 degrees) at Calm MPH ( KT) gusting to 0 MPH (0 KT)
Visibility    Mile(s)
Weather: CLR
Sky Conditions  clear
Temperature 57.0 F (14 C)
Dew Point 39.1 F (4 C)
Relative Humidity 51%
Pressure   30.392 in. Hg (1029 hPa)
Rain  0.00 in.
Daily Rain  in.

Station Name  New Palace Theatre Organ Heritage Centre
Longitude, Latitude  -2.463611, 55.706389
Elevation 525
Station URL http://www.nptohc.co.uk/weather
Software Type WeatherDisplay:10.37P